sensor_id;sensor_type;location;lat;lon;timestamp;pressure;altitude;pressure_sealevel;temperature;humidity
6096;BME280;25081;42.698;23.298;2024-03-22T00:01:13;95330.92;;;6.37;51.28
6096;BME280;25081;42.698;23.298;2024-03-22T00:03:22;95324.46;;;6.36;51.38
6096;BME280;25081;42.698;23.298;2024-03-22T00:05:31;95328.19;;;6.41;51.34
6096;BME280;25081;42.698;23.298;2024-03-22T00:07:40;95328.13;;;6.35;51.83
6096;BME280;25081;42.698;23.298;2024-03-22T00:09:49;95328.75;;;6.26;53.12
6096;BME280;25081;42.698;23.298;2024-03-22T00:11:57;95323.97;;;6.15;53.70
6096;BME280;25081;42.698;23.298;2024-03-22T00:14:06;95324.09;;;6.17;53.40
6096;BME280;25081;42.698;23.298;2024-03-22T00:16:14;95329.97;;;6.13;53.73
6096;BME280;25081;42.698;23.298;2024-03-22T00:18:23;95329.97;;;6.02;54.26
6096;BME280;25081;42.698;23.298;2024-03-22T00:20:32;95326.19;;;6.00;54.56
6096;BME280;25081;42.698;23.298;2024-03-22T00:22:41;95325.38;;;6.00;54.43
6096;BME280;25081;42.698;23.298;2024-03-22T00:24:49;95325.92;;;5.95;55.09
6096;BME280;25081;42.698;23.298;2024-03-22T00:26:58;95323.23;;;6.10;54.19
6096;BME280;25081;42.698;23.298;2024-03-22T00:29:06;95328.69;;;5.98;54.84
6096;BME280;25081;42.698;23.298;2024-03-22T00:31:15;95330.70;;;5.96;54.88
6096;BME280;25081;42.698;23.298;2024-03-22T00:33:24;95325.88;;;5.85;55.91
6096;BME280;25081;42.698;23.298;2024-03-22T00:35:33;95334.08;;;5.79;56.67
6096;BME280;25081;42.698;23.298;2024-03-22T00:37:41;95336.53;;;5.81;57.03
6096;BME280;25081;42.698;23.298;2024-03-22T00:39:50;95332.06;;;5.56;58.30
6096;BME280;25081;42.698;23.298;2024-03-22T00:41:58;95337.95;;;5.62;58.16
6096;BME280;25081;42.698;23.298;2024-03-22T00:44:07;95333.27;;;5.53;57.79
6096;BME280;25081;42.698;23.298;2024-03-22T00:46:16;95331.44;;;5.54;58.47
6096;BME280;25081;42.698;23.298;2024-03-22T00:48:24;95335.15;;;5.59;58.28
6096;BME280;25081;42.698;23.298;2024-03-22T00:50:33;95332.48;;;5.49;59.09
6096;BME280;25081;42.698;23.298;2024-03-22T00:52:42;95332.45;;;5.38;59.91
6096;BME280;25081;42.698;23.298;2024-03-22T00:54:50;95331.01;;;5.35;60.18
6096;BME280;25081;42.698;23.298;2024-03-22T00:56:59;95338.66;;;5.30;60.34
6096;BME280;25081;42.698;23.298;2024-03-22T00:59:08;95334.72;;;5.15;60.64
6096;BME280;25081;42.698;23.298;2024-03-22T01:01:17;95327.30;;;5.15;61.05
6096;BME280;25081;42.698;23.298;2024-03-22T01:03:25;95328.55;;;5.19;61.37
6096;BME280;25081;42.698;23.298;2024-03-22T01:05:34;95329.46;;;5.11;61.34
6096;BME280;25081;42.698;23.298;2024-03-22T01:07:43;95330.78;;;5.11;61.99
6096;BME280;25081;42.698;23.298;2024-03-22T01:09:52;95324.11;;;5.05;61.82
6096;BME280;25081;42.698;23.298;2024-03-22T01:12:00;95329.89;;;5.04;62.17
6096;BME280;25081;42.698;23.298;2024-03-22T01:14:09;95337.64;;;5.06;61.66
6096;BME280;25081;42.698;23.298;2024-03-22T01:16:17;95329.27;;;5.02;62.04
6096;BME280;25081;42.698;23.298;2024-03-22T01:18:26;95311.47;;;4.67;62.04
6096;BME280;25081;42.698;23.298;2024-03-22T01:20:35;95340.58;;;4.77;62.34
6096;BME280;25081;42.698;23.298;2024-03-22T01:22:43;95344.54;;;4.77;62.50
6096;BME280;25081;42.698;23.298;2024-03-22T01:24:52;95337.25;;;4.79;62.43
6096;BME280;25081;42.698;23.298;2024-03-22T01:27:01;95340.00;;;4.86;62.15
6096;BME280;25081;42.698;23.298;2024-03-22T01:29:10;95338.25;;;4.78;62.25
6096;BME280;25081;42.698;23.298;2024-03-22T01:31:19;95335.19;;;4.71;63.20
6096;BME280;25081;42.698;23.298;2024-03-22T01:34:04;95339.50;;;4.86;62.53
6096;BME280;25081;42.698;23.298;2024-03-22T01:36:12;95339.97;;;4.71;63.10
6096;BME280;25081;42.698;23.298;2024-03-22T01:38:21;95339.59;;;4.59;63.74
6096;BME280;25081;42.698;23.298;2024-03-22T01:40:29;95337.56;;;4.66;63.61
6096;BME280;25081;42.698;23.298;2024-03-22T01:42:38;95334.05;;;4.69;63.56
6096;BME280;25081;42.698;23.298;2024-03-22T01:44:48;95307.30;;;4.53;63.51
6096;BME280;25081;42.698;23.298;2024-03-22T01:46:55;95337.01;;;4.70;63.83
6096;BME280;25081;42.698;23.298;2024-03-22T01:49:04;95329.95;;;4.67;64.16
6096;BME280;25081;42.698;23.298;2024-03-22T01:51:13;95333.12;;;4.62;64.05
6096;BME280;25081;42.698;23.298;2024-03-22T01:53:21;95332.97;;;4.64;63.93
6096;BME280;25081;42.698;23.298;2024-03-22T01:55:30;95330.14;;;4.65;63.49
6096;BME280;25081;42.698;23.298;2024-03-22T01:57:39;95331.09;;;4.68;63.28
6096;BME280;25081;42.698;23.298;2024-03-22T02:00:24;95327.26;;;4.56;63.20
6096;BME280;25081;42.698;23.298;2024-03-22T02:02:32;95325.96;;;4.52;63.58
6096;BME280;25081;42.698;23.298;2024-03-22T02:04:41;95327.95;;;4.54;63.15
6096;BME280;25081;42.698;23.298;2024-03-22T02:06:50;95331.22;;;4.56;63.21
6096;BME280;25081;42.698;23.298;2024-03-22T02:08:58;95329.41;;;4.52;63.21
6096;BME280;25081;42.698;23.298;2024-03-22T02:11:07;95329.40;;;4.38;63.65
6096;BME280;25081;42.698;23.298;2024-03-22T02:13:16;95336.18;;;4.36;63.66
6096;BME280;25081;42.698;23.298;2024-03-22T02:15:25;95330.78;;;4.29;64.31
6096;BME280;25081;42.698;23.298;2024-03-22T02:17:34;95329.33;;;4.27;64.40
6096;BME280;25081;42.698;23.298;2024-03-22T02:19:42;95334.42;;;4.28;64.68
6096;BME280;25081;42.698;23.298;2024-03-22T02:21:51;95331.11;;;4.30;64.70
6096;BME280;25081;42.698;23.298;2024-03-22T02:24:00;95330.34;;;4.22;65.09
6096;BME280;25081;42.698;23.298;2024-03-22T02:26:09;95334.53;;;4.16;65.56
6096;BME280;25081;42.698;23.298;2024-03-22T02:28:17;95335.63;;;4.22;65.22
6096;BME280;25081;42.698;23.298;2024-03-22T02:30:26;95346.41;;;4.16;65.34
6096;BME280;25081;42.698;23.298;2024-03-22T02:32:35;95344.52;;;4.02;65.29
6096;BME280;25081;42.698;23.298;2024-03-22T02:34:44;95344.41;;;4.14;65.17
6096;BME280;25081;42.698;23.298;2024-03-22T02:36:52;95349.69;;;4.14;66.01
6096;BME280;25081;42.698;23.298;2024-03-22T02:39:01;95355.78;;;4.15;65.65
6096;BME280;25081;42.698;23.298;2024-03-22T02:41:10;95354.52;;;4.11;66.01
6096;BME280;25081;42.698;23.298;2024-03-22T02:43:18;95353.32;;;4.17;66.25
6096;BME280;25081;42.698;23.298;2024-03-22T02:45:27;95352.55;;;4.09;66.49
6096;BME280;25081;42.698;23.298;2024-03-22T02:47:36;95352.42;;;4.02;66.40
6096;BME280;25081;42.698;23.298;2024-03-22T02:49:45;95355.61;;;3.97;66.86
6096;BME280;25081;42.698;23.298;2024-03-22T02:51:53;95357.93;;;3.92;68.05
6096;BME280;25081;42.698;23.298;2024-03-22T02:54:02;95361.11;;;3.88;68.18
6096;BME280;25081;42.698;23.298;2024-03-22T02:56:11;95354.16;;;3.91;68.55
6096;BME280;25081;42.698;23.298;2024-03-22T02:58:20;95356.75;;;3.95;68.38
6096;BME280;25081;42.698;23.298;2024-03-22T03:00:28;95365.66;;;3.94;68.78
6096;BME280;25081;42.698;23.298;2024-03-22T03:02:37;95365.66;;;3.94;68.55
6096;BME280;25081;42.698;23.298;2024-03-22T03:04:46;95372.94;;;3.92;68.30
6096;BME280;25081;42.698;23.298;2024-03-22T03:06:54;95347.47;;;3.80;68.48
6096;BME280;25081;42.698;23.298;2024-03-22T03:09:03;95354.66;;;3.90;68.68
6096;BME280;25081;42.698;23.298;2024-03-22T03:11:13;95371.53;;;4.04;68.70
6096;BME280;25081;42.698;23.298;2024-03-22T03:13:22;95379.30;;;4.01;68.81
6096;BME280;25081;42.698;23.298;2024-03-22T03:15:31;95377.58;;;3.86;68.97
6096;BME280;25081;42.698;23.298;2024-03-22T03:17:40;95377.89;;;3.91;69.28
6096;BME280;25081;42.698;23.298;2024-03-22T03:19:48;95378.39;;;3.90;68.89
6096;BME280;25081;42.698;23.298;2024-03-22T03:21:57;95382.39;;;3.82;68.16
6096;BME280;25081;42.698;23.298;2024-03-22T03:24:06;95379.93;;;3.81;67.70
6096;BME280;25081;42.698;23.298;2024-03-22T03:26:15;95383.84;;;3.85;67.88
6096;BME280;25081;42.698;23.298;2024-03-22T03:28:23;95386.38;;;3.78;68.04
6096;BME280;25081;42.698;23.298;2024-03-22T03:30:33;95388.34;;;3.80;68.12
6096;BME280;25081;42.698;23.298;2024-03-22T03:32:42;95396.67;;;3.57;68.30
6096;BME280;25081;42.698;23.298;2024-03-22T03:34:50;95407.48;;;3.39;68.95
6096;BME280;25081;42.698;23.298;2024-03-22T03:36:59;95279.86;;;2.55;69.59
6096;BME280;25081;42.698;23.298;2024-03-22T03:39:08;95400.56;;;3.34;69.54
6096;BME280;25081;42.698;23.298;2024-03-22T03:41:17;95375.24;;;3.25;69.54
6096;BME280;25081;42.698;23.298;2024-03-22T03:43:26;95400.27;;;3.29;69.81
6096;BME280;25081;42.698;23.298;2024-03-22T03:45:36;95403.88;;;3.32;70.39
6096;BME280;25081;42.698;23.298;2024-03-22T03:47:45;95404.20;;;3.33;70.04
6096;BME280;25081;42.698;23.298;2024-03-22T03:49:54;95410.14;;;3.31;70.06
6096;BME280;25081;42.698;23.298;2024-03-22T03:52:03;95410.66;;;3.22;70.70
6096;BME280;25081;42.698;23.298;2024-03-22T03:54:12;95416.16;;;2.92;71.02
6096;BME280;25081;42.698;23.298;2024-03-22T03:56:21;95418.63;;;2.94;71.46
6096;BME280;25081;42.698;23.298;2024-03-22T03:58:29;95419.94;;;2.94;70.99
6096;BME280;25081;42.698;23.298;2024-03-22T04:00:38;95425.05;;;2.99;70.46
6096;BME280;25081;42.698;23.298;2024-03-22T04:02:48;95420.27;;;2.95;70.21
6096;BME280;25081;42.698;23.298;2024-03-22T04:04:57;95391.33;;;2.82;69.76
6096;BME280;25081;42.698;23.298;2024-03-22T04:07:05;95423.23;;;3.00;69.17
6096;BME280;25081;42.698;23.298;2024-03-22T04:09:14;95425.87;;;3.00;69.10
6096;BME280;25081;42.698;23.298;2024-03-22T04:11:23;95433.09;;;3.10;68.51
6096;BME280;25081;42.698;23.298;2024-03-22T04:13:32;95426.48;;;3.14;68.95
6096;BME280;25081;42.698;23.298;2024-03-22T04:15:41;95426.14;;;3.21;68.82
6096;BME280;25081;42.698;23.298;2024-03-22T04:17:49;95427.95;;;3.21;69.01
6096;BME280;25081;42.698;23.298;2024-03-22T04:19:58;95425.99;;;3.19;69.66
6096;BME280;25081;42.698;23.298;2024-03-22T04:22:07;95422.67;;;3.16;70.08
6096;BME280;25081;42.698;23.298;2024-03-22T04:24:16;95437.48;;;3.18;70.07
6096;BME280;25081;42.698;23.298;2024-03-22T04:26:24;95427.95;;;3.16;70.36
6096;BME280;25081;42.698;23.298;2024-03-22T04:28:33;95433.05;;;3.22;70.47
6096;BME280;25081;42.698;23.298;2024-03-22T04:30:42;95437.04;;;3.10;70.55
6096;BME280;25081;42.698;23.298;2024-03-22T04:32:50;95436.54;;;2.98;70.91
6096;BME280;25081;42.698;23.298;2024-03-22T04:34:59;95439.62;;;3.18;70.74
6096;BME280;25081;42.698;23.298;2024-03-22T04:37:08;95447.39;;;3.20;70.73
6096;BME280;25081;42.698;23.298;2024-03-22T04:39:16;95449.52;;;3.20;71.02
6096;BME280;25081;42.698;23.298;2024-03-22T04:41:25;95451.64;;;3.25;70.63
6096;BME280;25081;42.698;23.298;2024-03-22T04:43:34;95451.10;;;3.37;70.16
6096;BME280;25081;42.698;23.298;2024-03-22T04:45:43;95454.21;;;3.45;70.12
6096;BME280;25081;42.698;23.298;2024-03-22T04:47:51;95449.27;;;3.50;69.96
6096;BME280;25081;42.698;23.298;2024-03-22T04:50:00;95457.77;;;3.68;69.77
6096;BME280;25081;42.698;23.298;2024-03-22T04:52:09;95448.55;;;3.68;69.63
6096;BME280;25081;42.698;23.298;2024-03-22T04:54:17;95448.87;;;3.69;69.73
6096;BME280;25081;42.698;23.298;2024-03-22T04:56:26;95455.58;;;3.76;69.66
6096;BME280;25081;42.698;23.298;2024-03-22T04:58:35;95454.75;;;3.80;69.62
6096;BME280;25081;42.698;23.298;2024-03-22T05:00:43;95447.74;;;3.95;69.74
6096;BME280;25081;42.698;23.298;2024-03-22T05:02:52;95433.07;;;4.69;67.62
6096;BME280;25081;42.698;23.298;2024-03-22T05:05:01;95410.98;;;5.48;64.48
6096;BME280;25081;42.698;23.298;2024-03-22T05:07:09;95445.29;;;6.11;61.06
6096;BME280;25081;42.698;23.298;2024-03-22T05:09:18;95446.32;;;6.85;58.68
6096;BME280;25081;42.698;23.298;2024-03-22T05:11:27;95444.42;;;7.97;56.55
6096;BME280;25081;42.698;23.298;2024-03-22T05:13:35;95446.21;;;8.62;53.16
6096;BME280;25081;42.698;23.298;2024-03-22T05:15:44;95447.91;;;9.09;51.55
6096;BME280;25081;42.698;23.298;2024-03-22T05:17:53;95449.31;;;9.25;50.75
6096;BME280;25081;42.698;23.298;2024-03-22T05:20:02;95448.14;;;9.77;49.29
6096;BME280;25081;42.698;23.298;2024-03-22T05:22:10;95442.70;;;10.10;48.69
6096;BME280;25081;42.698;23.298;2024-03-22T05:24:19;95452.87;;;9.55;48.52
6096;BME280;25081;42.698;23.298;2024-03-22T05:26:28;95456.41;;;8.58;51.45
6096;BME280;25081;42.698;23.298;2024-03-22T05:28:36;95460.16;;;8.47;52.05
6096;BME280;25081;42.698;23.298;2024-03-22T05:30:45;95469.43;;;8.16;52.96
6096;BME280;25081;42.698;23.298;2024-03-22T05:32:54;95464.66;;;9.16;51.23
6096;BME280;25081;42.698;23.298;2024-03-22T05:35:04;95467.84;;;9.49;48.51
6096;BME280;25081;42.698;23.298;2024-03-22T05:37:12;95469.08;;;9.46;48.51
6096;BME280;25081;42.698;23.298;2024-03-22T05:39:20;95465.80;;;9.11;49.24
6096;BME280;25081;42.698;23.298;2024-03-22T05:41:29;95472.52;;;8.44;51.01
6096;BME280;25081;42.698;23.298;2024-03-22T05:43:38;95470.78;;;8.47;51.28
6096;BME280;25081;42.698;23.298;2024-03-22T05:45:46;95478.21;;;8.17;51.50
6096;BME280;25081;42.698;23.298;2024-03-22T05:47:55;95480.92;;;7.82;52.79
6096;BME280;25081;42.698;23.298;2024-03-22T05:50:05;95481.22;;;6.99;55.25
6096;BME280;25081;42.698;23.298;2024-03-22T05:52:14;95482.28;;;6.51;56.81
6096;BME280;25081;42.698;23.298;2024-03-22T05:54:23;95481.91;;;6.65;57.08
6096;BME280;25081;42.698;23.298;2024-03-22T05:56:31;95485.13;;;6.60;57.49
6096;BME280;25081;42.698;23.298;2024-03-22T05:58:40;95481.78;;;6.52;57.30
6096;BME280;25081;42.698;23.298;2024-03-22T06:00:49;95493.16;;;6.67;56.49
6096;BME280;25081;42.698;23.298;2024-03-22T06:02:57;95492.89;;;6.62;55.82
6096;BME280;25081;42.698;23.298;2024-03-22T06:05:07;95489.69;;;6.99;55.31
6096;BME280;25081;42.698;23.298;2024-03-22T06:07:15;95487.78;;;6.82;54.63
6096;BME280;25081;42.698;23.298;2024-03-22T06:09:24;95488.27;;;6.39;56.00
6096;BME280;25081;42.698;23.298;2024-03-22T06:11:33;95489.82;;;6.33;56.39
6096;BME280;25081;42.698;23.298;2024-03-22T06:13:42;95488.25;;;6.85;55.84
6096;BME280;25081;42.698;23.298;2024-03-22T06:15:50;95484.30;;;7.03;54.89
6096;BME280;25081;42.698;23.298;2024-03-22T06:17:59;95488.59;;;7.25;53.97
6096;BME280;25081;42.698;23.298;2024-03-22T06:20:09;95481.98;;;7.60;53.80
6096;BME280;25081;42.698;23.298;2024-03-22T06:22:18;95483.77;;;7.63;52.52
6096;BME280;25081;42.698;23.298;2024-03-22T06:24:26;95486.56;;;7.55;52.47
6096;BME280;25081;42.698;23.298;2024-03-22T06:26:35;95486.47;;;7.59;52.38
6096;BME280;25081;42.698;23.298;2024-03-22T06:28:44;95486.73;;;7.82;51.87
6096;BME280;25081;42.698;23.298;2024-03-22T06:30:52;95485.26;;;7.62;51.71
6096;BME280;25081;42.698;23.298;2024-03-22T06:33:01;95486.92;;;7.63;52.22
6096;BME280;25081;42.698;23.298;2024-03-22T06:35:10;95488.94;;;7.95;52.09
6096;BME280;25081;42.698;23.298;2024-03-22T06:37:19;95486.38;;;7.91;51.25
6096;BME280;25081;42.698;23.298;2024-03-22T06:39:27;95485.25;;;7.72;51.23
6096;BME280;25081;42.698;23.298;2024-03-22T06:41:36;95487.48;;;7.58;50.76
6096;BME280;25081;42.698;23.298;2024-03-22T06:43:45;95492.71;;;7.06;52.45
6096;BME280;25081;42.698;23.298;2024-03-22T06:45:54;95492.42;;;7.23;51.96
6096;BME280;25081;42.698;23.298;2024-03-22T06:48:02;95495.50;;;7.37;52.09
6096;BME280;25081;42.698;23.298;2024-03-22T06:50:12;95492.23;;;7.63;50.65
6096;BME280;25081;42.698;23.298;2024-03-22T06:52:20;95500.98;;;7.91;50.42
6096;BME280;25081;42.698;23.298;2024-03-22T06:54:29;95464.66;;;9.03;48.22
6096;BME280;25081;42.698;23.298;2024-03-22T06:56:37;95494.39;;;10.31;44.85
6096;BME280;25081;42.698;23.298;2024-03-22T06:58:46;95494.58;;;12.21;41.77
6096;BME280;25081;42.698;23.298;2024-03-22T07:00:55;95488.67;;;14.30;37.25
6096;BME280;25081;42.698;23.298;2024-03-22T07:03:04;95485.88;;;14.63;36.20
6096;BME280;25081;42.698;23.298;2024-03-22T07:05:12;95470.34;;;15.22;34.86
6096;BME280;25081;42.698;23.298;2024-03-22T07:07:21;95482.88;;;15.33;33.24
6096;BME280;25081;42.698;23.298;2024-03-22T07:09:32;95488.20;;;17.19;31.96
6096;BME280;25081;42.698;23.298;2024-03-22T07:11:39;95495.48;;;15.02;33.78
6096;BME280;25081;42.698;23.298;2024-03-22T07:13:47;95490.48;;;13.25;36.96
6096;BME280;25081;42.698;23.298;2024-03-22T07:15:56;95499.95;;;13.09;38.69
6096;BME280;25081;42.698;23.298;2024-03-22T07:18:06;95488.91;;;16.85;32.85
6096;BME280;25081;42.698;23.298;2024-03-22T07:20:14;95483.38;;;18.15;29.79
6096;BME280;25081;42.698;23.298;2024-03-22T07:22:23;95483.38;;;18.15;29.79
6096;BME280;25081;42.698;23.298;2024-03-22T07:24:32;95502.05;;;17.44;29.39
6096;BME280;25081;42.698;23.298;2024-03-22T07:26:40;95494.06;;;17.13;31.22
6096;BME280;25081;42.698;23.298;2024-03-22T07:28:49;95484.36;;;18.48;28.38
6096;BME280;25081;42.698;23.298;2024-03-22T07:30:58;95484.36;;;18.48;28.38
6096;BME280;25081;42.698;23.298;2024-03-22T07:33:07;95483.09;;;18.64;27.59
6096;BME280;25081;42.698;23.298;2024-03-22T07:35:15;95483.00;;;19.08;27.50
6096;BME280;25081;42.698;23.298;2024-03-22T07:37:24;95465.72;;;19.20;27.15
6096;BME280;25081;42.698;23.298;2024-03-22T07:39:33;95488.77;;;19.53;26.71
6096;BME280;25081;42.698;23.298;2024-03-22T07:41:42;95489.87;;;21.10;25.17
6096;BME280;25081;42.698;23.298;2024-03-22T07:43:50;95483.50;;;21.43;24.99
6096;BME280;25081;42.698;23.298;2024-03-22T07:45:59;95477.41;;;21.59;24.73
6096;BME280;25081;42.698;23.298;2024-03-22T07:48:08;95479.57;;;21.62;24.08
6096;BME280;25081;42.698;23.298;2024-03-22T07:50:17;95486.81;;;19.18;25.91
6096;BME280;25081;42.698;23.298;2024-03-22T07:52:25;95485.38;;;18.37;27.41
6096;BME280;25081;42.698;23.298;2024-03-22T07:54:34;95490.13;;;18.20;28.84
6096;BME280;25081;42.698;23.298;2024-03-22T07:56:43;95492.45;;;17.15;29.22
6096;BME280;25081;42.698;23.298;2024-03-22T07:58:51;95491.31;;;18.34;28.26
6096;BME280;25081;42.698;23.298;2024-03-22T08:01:00;95448.41;;;17.61;29.13
6096;BME280;25081;42.698;23.298;2024-03-22T08:05:27;95491.78;;;17.00;29.35
6096;BME280;25081;42.698;23.298;2024-03-22T08:07:36;95486.02;;;18.57;28.43
6096;BME280;25081;42.698;23.298;2024-03-22T08:09:45;95483.83;;;20.64;25.23
6096;BME280;25081;42.698;23.298;2024-03-22T08:11:53;95493.16;;;17.05;28.68
6096;BME280;25081;42.698;23.298;2024-03-22T08:14:02;95481.78;;;15.32;30.68
6096;BME280;25081;42.698;23.298;2024-03-22T08:16:11;95486.06;;;19.42;26.74
6096;BME280;25081;42.698;23.298;2024-03-22T08:18:20;95486.02;;;18.57;27.78
6096;BME280;25081;42.698;23.298;2024-03-22T08:20:28;95482.59;;;18.72;27.10
6096;BME280;25081;42.698;23.298;2024-03-22T08:22:37;95490.45;;;16.20;30.56
6096;BME280;25081;42.698;23.298;2024-03-22T08:24:46;95480.58;;;18.49;27.90
6096;BME280;25081;42.698;23.298;2024-03-22T08:26:54;95469.45;;;21.31;24.53
6096;BME280;25081;42.698;23.298;2024-03-22T08:29:03;95468.98;;;21.63;24.21
6096;BME280;25081;42.698;23.298;2024-03-22T08:31:12;95484.20;;;19.86;24.88
6096;BME280;25081;42.698;23.298;2024-03-22T08:33:21;95480.27;;;17.96;27.91
6096;BME280;25081;42.698;23.298;2024-03-22T08:35:29;95478.92;;;20.76;25.66
6096;BME280;25081;42.698;23.298;2024-03-22T08:37:38;95480.43;;;19.62;25.28
6096;BME280;25081;42.698;23.298;2024-03-22T08:39:46;95474.36;;;21.24;24.50
6096;BME280;25081;42.698;23.298;2024-03-22T08:41:55;95467.52;;;21.76;24.74
6096;BME280;25081;42.698;23.298;2024-03-22T08:44:04;95463.44;;;21.76;23.68
6096;BME280;25081;42.698;23.298;2024-03-22T08:46:12;95475.52;;;20.27;25.25
6096;BME280;25081;42.698;23.298;2024-03-22T08:48:21;95468.80;;;19.61;26.23
6096;BME280;25081;42.698;23.298;2024-03-22T08:50:30;95471.24;;;21.85;23.84
6096;BME280;25081;42.698;23.298;2024-03-22T08:52:39;95468.61;;;24.01;21.25
6096;BME280;25081;42.698;23.298;2024-03-22T08:54:47;95481.89;;;18.97;25.26
6096;BME280;25081;42.698;23.298;2024-03-22T08:56:56;95487.98;;;17.85;27.94
6096;BME280;25081;42.698;23.298;2024-03-22T08:59:05;95401.76;;;16.25;30.10
6096;BME280;25081;42.698;23.298;2024-03-22T09:01:14;95468.45;;;21.14;24.63
6096;BME280;25081;42.698;23.298;2024-03-22T09:03:23;95465.02;;;22.69;22.68
6096;BME280;25081;42.698;23.298;2024-03-22T09:05:32;95472.15;;;20.76;24.55
6096;BME280;25081;42.698;23.298;2024-03-22T09:07:42;95469.16;;;16.10;29.76
6096;BME280;25081;42.698;23.298;2024-03-22T09:09:50;95469.16;;;17.90;28.08
6096;BME280;25081;42.698;23.298;2024-03-22T09:11:58;95457.58;;;20.60;25.27
6096;BME280;25081;42.698;23.298;2024-03-22T09:14:07;95458.98;;;20.24;24.68
6096;BME280;25081;42.698;23.298;2024-03-22T09:16:16;95453.34;;;20.03;24.93
6096;BME280;25081;42.698;23.298;2024-03-22T09:18:24;95460.13;;;19.85;25.15
6096;BME280;25081;42.698;23.298;2024-03-22T09:20:33;95456.77;;;18.94;26.18
6096;BME280;25081;42.698;23.298;2024-03-22T09:22:42;95459.23;;;19.15;25.68
6096;BME280;25081;42.698;23.298;2024-03-22T09:24:50;95464.70;;;17.44;27.67
6096;BME280;25081;42.698;23.298;2024-03-22T09:26:59;95440.49;;;16.90;29.13
6096;BME280;25081;42.698;23.298;2024-03-22T09:29:08;95462.12;;;18.31;28.02
6096;BME280;25081;42.698;23.298;2024-03-22T09:31:16;95462.12;;;18.31;28.02
6096;BME280;25081;42.698;23.298;2024-03-22T09:33:25;95448.13;;;19.07;26.92
6096;BME280;25081;42.698;23.298;2024-03-22T09:35:35;95438.48;;;22.34;23.44
6096;BME280;25081;42.698;23.298;2024-03-22T09:37:43;95441.36;;;20.49;24.39
6096;BME280;25081;42.698;23.298;2024-03-22T09:39:52;95444.45;;;19.71;25.53
6096;BME280;25081;42.698;23.298;2024-03-22T09:42:01;95447.34;;;19.14;26.84
6096;BME280;25081;42.698;23.298;2024-03-22T09:44:11;95426.25;;;17.86;28.55
6096;BME280;25081;42.698;23.298;2024-03-22T09:46:18;95454.55;;;16.51;29.27
6096;BME280;25081;42.698;23.298;2024-03-22T09:48:27;95450.71;;;17.17;29.58
6096;BME280;25081;42.698;23.298;2024-03-22T09:50:36;95455.63;;;15.92;30.73
6096;BME280;25081;42.698;23.298;2024-03-22T09:52:45;95441.06;;;17.51;29.28
6096;BME280;25081;42.698;23.298;2024-03-22T09:54:54;95437.69;;;19.61;26.73
6096;BME280;25081;42.698;23.298;2024-03-22T09:57:02;95442.28;;;19.81;26.30
6096;BME280;25081;42.698;23.298;2024-03-22T09:59:11;95442.37;;;16.46;29.84
6096;BME280;25081;42.698;23.298;2024-03-22T10:01:20;95435.57;;;18.13;28.10
6096;BME280;25081;42.698;23.298;2024-03-22T10:03:29;95444.44;;;13.81;33.71
6096;BME280;25081;42.698;23.298;2024-03-22T10:05:38;95444.44;;;13.81;33.71
6096;BME280;25081;42.698;23.298;2024-03-22T10:07:47;95440.39;;;15.97;31.25
6096;BME280;25081;42.698;23.298;2024-03-22T10:09:58;95438.78;;;16.40;31.01
6096;BME280;25081;42.698;23.298;2024-03-22T10:12:07;95428.83;;;16.60;29.36
6096;BME280;25081;42.698;23.298;2024-03-22T10:14:16;95428.83;;;16.60;29.36
6096;BME280;25081;42.698;23.298;2024-03-22T10:16:24;95422.01;;;17.21;29.91
6096;BME280;25081;42.698;23.298;2024-03-22T10:18:34;95422.01;;;17.28;29.24
6096;BME280;25081;42.698;23.298;2024-03-22T10:20:43;95421.34;;;18.82;27.20
6096;BME280;25081;42.698;23.298;2024-03-22T10:22:56;95422.95;;;20.39;25.18
6096;BME280;25081;42.698;23.298;2024-03-22T10:25:05;95414.95;;;19.90;25.27
6096;BME280;25081;42.698;23.298;2024-03-22T10:27:14;95418.14;;;16.90;29.17
6096;BME280;25081;42.698;23.298;2024-03-22T10:29:23;95423.14;;;16.59;30.41
6096;BME280;25081;42.698;23.298;2024-03-22T10:31:32;95427.17;;;14.00;33.45
6096;BME280;25081;42.698;23.298;2024-03-22T10:33:41;95419.66;;;14.52;33.19
6096;BME280;25081;42.698;23.298;2024-03-22T10:35:50;95414.45;;;13.96;34.09
6096;BME280;25081;42.698;23.298;2024-03-22T10:37:59;95407.94;;;15.65;32.36
6096;BME280;25081;42.698;23.298;2024-03-22T10:40:09;95409.59;;;15.18;32.37
6096;BME280;25081;42.698;23.298;2024-03-22T10:42:17;95411.70;;;14.31;33.28
6096;BME280;25081;42.698;23.298;2024-03-22T10:44:26;95405.12;;;13.98;33.94
6096;BME280;25081;42.698;23.298;2024-03-22T10:46:35;95402.98;;;13.86;34.41
6096;BME280;25081;42.698;23.298;2024-03-22T10:48:43;95389.02;;;15.77;31.93
6096;BME280;25081;42.698;23.298;2024-03-22T10:50:52;95403.81;;;15.27;31.81
6096;BME280;25081;42.698;23.298;2024-03-22T10:53:02;95353.92;;;12.92;34.93
6096;BME280;25081;42.698;23.298;2024-03-22T10:55:12;95386.11;;;14.12;34.22
6096;BME280;25081;42.698;23.298;2024-03-22T10:57:19;95385.50;;;15.60;32.39
6096;BME280;25081;42.698;23.298;2024-03-22T10:59:32;95378.81;;;15.98;31.78
6096;BME280;25081;42.698;23.298;2024-03-22T11:01:37;95372.05;;;17.53;29.13
6096;BME280;25081;42.698;23.298;2024-03-22T11:03:46;95365.67;;;18.11;27.99
6096;BME280;25081;42.698;23.298;2024-03-22T11:05:56;95373.56;;;15.00;31.37
6096;BME280;25081;42.698;23.298;2024-03-22T11:08:04;95387.17;;;13.99;32.66
6096;BME280;25081;42.698;23.298;2024-03-22T11:10:13;95378.98;;;13.80;32.81
6096;BME280;25081;42.698;23.298;2024-03-22T11:12:22;95376.88;;;14.33;32.42
6096;BME280;25081;42.698;23.298;2024-03-22T11:14:30;95373.13;;;14.46;31.85
6096;BME280;25081;42.698;23.298;2024-03-22T11:16:39;95366.69;;;16.18;30.46
6096;BME280;25081;42.698;23.298;2024-03-22T11:18:48;95364.84;;;14.62;32.17
6096;BME280;25081;42.698;23.298;2024-03-22T11:20:56;95364.63;;;14.09;33.25
6096;BME280;25081;42.698;23.298;2024-03-22T11:23:05;95366.71;;;14.93;32.25
6096;BME280;25081;42.698;23.298;2024-03-22T11:25:14;95362.43;;;15.25;30.99
6096;BME280;25081;42.698;23.298;2024-03-22T11:27:23;95366.83;;;15.51;30.29
6096;BME280;25081;42.698;23.298;2024-03-22T11:29:31;95356.45;;;15.57;30.36
6096;BME280;25081;42.698;23.298;2024-03-22T11:31:40;95361.06;;;15.78;30.33